createdAt,value
2019-02-07T14:26:52.876Z,4.80
2019-02-07T14:29:35.260Z,2.67
2019-02-07T14:32:27.739Z,3.07
2019-02-07T14:35:28.100Z,3.40
2019-02-07T14:37:56.215Z,3.33
2019-02-07T14:40:27.367Z,2.83
2019-02-07T14:43:13.581Z,4.00
2019-02-07T14:45:41.850Z,3.63
2019-02-07T14:48:12.761Z,2.70
2019-02-07T14:50:39.226Z,2.90
2019-02-07T14:53:08.288Z,2.87
2019-02-07T14:55:34.482Z,3.40
2019-02-07T14:58:06.824Z,3.43
2019-02-07T15:00:33.470Z,3.20
2019-02-07T15:03:18.565Z,3.13
2019-02-07T15:06:04.024Z,2.57
2019-02-07T15:08:47.469Z,3.50
2019-02-07T15:11:13.928Z,2.57
2019-02-07T15:13:40.088Z,3.00
2019-02-07T15:16:06.705Z,3.23
2019-02-07T15:18:35.669Z,3.97
2019-02-07T15:21:01.988Z,2.70
2019-02-07T15:23:47.033Z,2.17
2019-02-07T15:26:13.276Z,3.80
2019-02-07T15:28:39.673Z,2.90
2019-02-07T15:31:24.995Z,3.00
2019-02-07T15:34:10.140Z,2.80
2019-02-07T15:36:55.463Z,2.03
2019-02-07T15:39:21.728Z,3.00
2019-02-07T15:41:48.425Z,2.63
2019-02-07T15:44:17.357Z,2.20
2019-02-07T15:46:43.640Z,2.63
2019-02-07T15:49:09.800Z,2.27
2019-02-07T15:51:36.053Z,2.27
2019-02-07T15:54:03.343Z,2.83
2019-02-07T15:56:38.708Z,2.30
2019-02-07T15:59:14.459Z,1.93
2019-02-07T16:02:03.198Z,2.60
2019-02-07T16:04:29.583Z,2.30
2019-02-07T16:06:55.860Z,2.00
2019-02-07T16:09:22.174Z,2.13
2019-02-07T16:11:53.030Z,2.57
2019-02-07T16:14:19.391Z,1.83
2019-02-07T16:16:45.690Z,1.30
2019-02-07T16:19:11.995Z,2.20
2019-02-07T16:21:38.356Z,2.00
2019-02-07T16:24:05.168Z,1.70
2019-02-07T16:26:31.448Z,2.00
2019-02-07T16:28:57.744Z,2.10
2019-02-07T16:31:24.130Z,2.30
2019-02-07T16:34:09.242Z,2.30
2019-02-07T16:36:54.097Z,2.20
2019-02-07T16:39:20.313Z,2.10
2019-02-07T16:42:06.552Z,2.00
2019-02-07T16:44:33.672Z,2.83
2019-02-07T16:46:59.960Z,2.60
2019-02-07T16:49:26.220Z,1.97
2019-02-07T16:51:55.211Z,1.10
2019-02-07T16:54:21.432Z,2.03
2019-02-07T16:56:47.682Z,1.90
2019-02-07T16:59:13.888Z,2.10
2019-02-07T17:01:40.076Z,1.03
2019-02-07T17:04:06.784Z,2.07
2019-02-07T17:06:35.566Z,2.37
2019-02-07T17:09:05.156Z,2.00
2019-02-07T17:11:34.148Z,2.37
2019-02-07T17:14:18.447Z,2.13
2019-02-07T17:16:44.905Z,1.93
2019-02-07T17:19:11.276Z,1.70
2019-02-07T17:21:37.501Z,1.60
2019-02-07T17:24:03.716Z,1.73
2019-02-07T17:26:30.051Z,1.53
2019-02-07T17:28:56.255Z,1.80
2019-02-07T17:31:22.483Z,2.13
2019-02-07T17:33:48.672Z,1.50
2019-02-07T17:36:15.136Z,2.23
2019-02-07T17:38:41.367Z,1.90
2019-02-07T17:41:07.841Z,2.20
2019-02-07T17:43:34.081Z,2.40
2019-02-07T17:46:18.964Z,1.60
2019-02-07T17:48:45.289Z,1.53
2019-02-07T17:51:30.439Z,1.57
2019-02-07T17:53:56.682Z,1.63
2019-02-07T17:56:23.043Z,1.77
2019-02-07T17:58:51.979Z,2.20
2019-02-07T18:01:18.167Z,1.63
2019-02-07T18:03:44.360Z,1.53
2019-02-07T18:06:10.943Z,1.93
2019-02-07T18:08:37.382Z,2.20
2019-02-07T18:11:06.540Z,1.60
2019-02-07T18:13:35.703Z,1.80
2019-02-07T18:16:04.581Z,1.57
2019-02-07T18:18:49.206Z,1.50
2019-02-07T18:21:15.458Z,1.97
2019-02-07T18:23:41.742Z,1.80
2019-02-07T18:26:07.944Z,1.53
2019-02-07T18:28:34.220Z,1.63
2019-02-07T18:31:00.479Z,1.33
2019-02-07T18:33:26.679Z,1.73
2019-02-07T18:35:52.880Z,1.53
2019-02-07T18:38:19.138Z,2.10
2019-02-07T18:40:45.455Z,1.90
2019-02-07T18:43:11.750Z,2.30
2019-02-07T18:45:37.958Z,1.87
2019-02-07T18:48:04.273Z,2.07
2019-02-07T18:50:37.732Z,2.23
2019-02-07T18:53:04.269Z,2.07
2019-02-07T18:55:33.656Z,2.53
2019-02-07T18:58:20.612Z,1.63
2019-02-07T19:00:46.888Z,3.80
2019-02-07T19:03:13.068Z,2.97
2019-02-07T19:05:39.243Z,2.20
2019-02-07T19:08:05.578Z,2.50
2019-02-07T19:10:31.772Z,2.27
2019-02-07T19:12:58.536Z,2.90
2019-02-07T19:15:47.024Z,2.80
2019-02-07T19:18:28.679Z,2.30
2019-02-07T19:20:54.960Z,2.57
2019-02-07T19:23:39.867Z,2.60
2019-02-07T19:26:08.729Z,3.57
2019-02-07T19:28:53.522Z,2.57
2019-02-07T19:31:22.988Z,2.00
2019-02-07T19:33:49.346Z,2.33
2019-02-07T19:36:18.116Z,1.60
2019-02-07T19:38:44.403Z,2.00
2019-02-07T19:41:13.147Z,1.90
2019-02-07T19:43:39.480Z,2.90
2019-02-07T19:46:05.720Z,2.37
2019-02-07T19:48:31.966Z,2.27
2019-02-07T19:51:01.855Z,2.00
2019-02-07T19:53:28.124Z,1.73
2019-02-07T19:55:54.533Z,2.20
2019-02-07T19:58:20.833Z,2.20
2019-02-07T20:00:47.086Z,1.67
2019-02-07T20:03:16.182Z,2.50
2019-02-07T20:05:54.813Z,2.87
2019-02-07T20:08:21.151Z,3.10
2019-02-07T20:10:47.338Z,2.17
2019-02-07T20:13:13.565Z,2.33
2019-02-07T20:15:41.620Z,2.67
2019-02-07T20:18:23.069Z,3.00
2019-02-07T20:20:49.392Z,3.57
2019-02-07T20:23:34.821Z,3.57
2019-02-07T20:26:01.207Z,3.20
2019-02-07T20:28:45.951Z,3.80
2019-02-07T20:31:12.337Z,3.87
2019-02-07T20:33:41.660Z,4.37
2019-02-07T20:36:10.808Z,4.23
2019-02-07T20:38:37.024Z,4.50
2019-02-07T20:41:05.783Z,4.87
2019-02-07T20:43:32.251Z,5.50
2019-02-07T20:45:58.636Z,4.20
2019-02-07T20:48:24.848Z,3.87
2019-02-07T20:50:58.973Z,3.70
2019-02-07T20:53:25.439Z,4.47
2019-02-07T20:55:51.777Z,4.07
2019-02-07T20:58:30.606Z,4.07
2019-02-07T21:00:56.925Z,4.57
2019-02-07T21:03:23.312Z,5.20
2019-02-07T21:05:49.506Z,4.73
2019-02-07T21:08:15.707Z,5.20
2019-02-07T21:11:00.571Z,4.80
2019-02-07T21:13:26.743Z,5.77
2019-02-07T21:15:53.056Z,6.23
2019-02-07T21:18:19.336Z,6.37
2019-02-07T21:20:45.617Z,6.43
2019-02-07T21:23:11.910Z,8.57
2019-02-07T21:25:43.994Z,7.53
2019-02-07T21:28:19.789Z,6.30
2019-02-07T21:30:46.255Z,7.73
2019-02-07T21:33:12.692Z,7.03
2019-02-07T21:35:57.507Z,5.73
2019-02-07T21:38:23.794Z,4.67
2019-02-07T21:40:53.082Z,6.30
2019-02-07T21:43:19.287Z,5.07
2019-02-07T21:45:45.493Z,5.47
2019-02-07T21:48:11.707Z,5.20
2019-02-07T21:50:38.123Z,4.17
2019-02-07T21:53:22.984Z,4.00
2019-02-07T21:55:49.183Z,4.67
2019-02-07T21:58:25.026Z,4.40
2019-02-07T22:00:51.282Z,3.93
2019-02-07T22:03:18.149Z,4.53
2019-02-07T22:06:03.319Z,3.27
2019-02-07T22:08:48.068Z,3.80
2019-02-07T22:11:14.369Z,5.03
2019-02-07T22:13:40.548Z,3.70
2019-02-07T22:16:06.735Z,4.70
2019-02-07T22:18:32.956Z,4.97
2019-02-07T22:20:59.144Z,4.23
2019-02-07T22:23:25.335Z,3.97
2019-02-07T22:25:51.788Z,5.10
2019-02-07T22:28:33.404Z,4.00
2019-02-07T22:30:59.662Z,4.43
2019-02-07T22:33:31.934Z,4.80
2019-02-07T22:35:58.112Z,4.80
2019-02-07T22:38:27.348Z,4.50
2019-02-07T22:40:53.598Z,3.63
2019-02-07T22:43:19.788Z,5.10
2019-02-07T22:45:45.987Z,4.90
2019-02-07T22:48:12.288Z,6.27
2019-02-07T22:50:38.517Z,5.93
2019-02-07T22:53:04.985Z,6.87
2019-02-07T22:55:31.164Z,7.30
2019-02-07T22:57:57.419Z,5.80
2019-02-07T23:00:35.527Z,5.13
2019-02-07T23:03:06.011Z,5.20
2019-02-07T23:05:32.281Z,5.47
2019-02-07T23:07:58.435Z,4.37
2019-02-07T23:10:24.824Z,5.73
2019-02-07T23:12:53.857Z,5.07
2019-02-07T23:15:23.095Z,4.83
2019-02-07T23:17:49.514Z,6.17
2019-02-07T23:20:18.220Z,5.90
2019-02-07T23:22:44.432Z,6.13
2019-02-07T23:25:10.881Z,6.67
2019-02-07T23:27:40.052Z,7.03
2019-02-07T23:30:15.227Z,5.33
2019-02-07T23:32:41.548Z,6.80
2019-02-07T23:35:10.965Z,7.23
2019-02-07T23:37:42.901Z,6.67
2019-02-07T23:40:14.976Z,6.53
2019-02-07T23:42:47.588Z,7.93
2019-02-07T23:45:19.842Z,7.90
2019-02-07T23:47:46.308Z,6.77
2019-02-07T23:50:12.968Z,6.73
2019-02-07T23:52:39.525Z,8.53
2019-02-07T23:55:11.478Z,9.13
2019-02-07T23:57:37.796Z,8.43
